createdAt,value
2022-10-01T00:00:20.969Z,9.90
2022-10-01T00:02:49.131Z,9.87
2022-10-01T00:05:17.280Z,9.70
2022-10-01T00:07:46.364Z,9.60
2022-10-01T00:10:16.130Z,9.49
2022-10-01T00:12:48.802Z,9.63
2022-10-01T00:15:17.650Z,9.66
2022-10-01T00:17:45.190Z,9.83
2022-10-01T00:20:14.752Z,9.93
2022-10-01T00:22:42.428Z,9.91
2022-10-01T00:25:10.719Z,9.94
2022-10-01T00:27:38.682Z,10.00
2022-10-01T00:30:07.745Z,9.95
2022-10-01T00:32:35.486Z,10.07
2022-10-01T00:35:03.527Z,10.11
2022-10-01T00:37:32.643Z,9.99
2022-10-01T00:39:59.986Z,10.01
2022-10-01T00:42:27.527Z,10.01
2022-10-01T00:44:55.644Z,9.80
2022-10-01T00:47:44.350Z,9.80
2022-10-01T00:50:30.149Z,9.98
2022-10-01T00:53:05.708Z,10.08
2022-10-01T00:55:41.740Z,9.79
2022-10-01T00:58:15.171Z,9.92
2022-10-01T01:00:43.546Z,9.93
2022-10-01T01:03:12.667Z,9.73
2022-10-01T01:05:40.219Z,9.46
2022-10-01T01:08:10.244Z,9.40
2022-10-01T01:11:23.922Z,9.34
2022-10-01T01:14:20.213Z,9.47
2022-10-01T01:17:02.691Z,9.46
2022-10-01T01:19:55.877Z,9.49
2022-10-01T01:22:32.804Z,9.67
2022-10-01T01:25:09.240Z,9.52
2022-10-01T01:27:59.426Z,9.29
2022-10-01T01:31:42.473Z,9.52
2022-10-01T01:34:18.440Z,9.74
2022-10-01T01:38:06.620Z,9.81
2022-10-01T01:41:49.898Z,9.53
2022-10-01T01:45:32.425Z,9.46
2022-10-01T01:48:02.644Z,9.34
2022-10-01T01:50:42.521Z,9.61
2022-10-01T01:53:11.345Z,9.32
2022-10-01T01:56:54.325Z,9.20
2022-10-01T01:59:21.801Z,9.43
2022-10-01T02:01:51.151Z,9.48
2022-10-01T02:05:34.044Z,9.45
2022-10-01T02:08:34.019Z,9.50
2022-10-01T02:12:17.771Z,9.69
2022-10-01T02:16:02.144Z,9.65
2022-10-01T02:19:45.179Z,9.61
2022-10-01T02:23:28.107Z,9.56
2022-10-01T02:27:11.031Z,9.43
2022-10-01T02:29:41.181Z,9.47
2022-10-01T02:32:10.790Z,9.60
2022-10-01T02:34:40.786Z,9.60
2022-10-01T02:37:11.138Z,9.61
2022-10-01T02:39:42.086Z,9.93
2022-10-01T02:42:14.671Z,9.82
2022-10-01T02:44:46.829Z,9.85
2022-10-01T02:47:41.661Z,9.87
2022-10-01T02:50:09.906Z,9.86
2022-10-01T02:53:05.505Z,9.86
2022-10-01T02:55:42.160Z,9.57
2022-10-01T02:58:09.474Z,9.84
2022-10-01T03:00:36.778Z,10.08
2022-10-01T03:03:04.076Z,10.00
2022-10-01T03:05:31.331Z,9.91
2022-10-01T03:07:58.711Z,9.96
2022-10-01T03:10:26.047Z,10.11
2022-10-01T03:12:53.314Z,9.96
2022-10-01T03:15:20.586Z,9.90
2022-10-01T03:17:52.656Z,10.14
2022-10-01T03:20:20.774Z,10.19
2022-10-01T03:22:48.353Z,10.23
2022-10-01T03:25:16.937Z,10.15
2022-10-01T03:27:46.580Z,10.15
2022-10-01T03:30:14.924Z,10.18
2022-10-01T03:32:42.096Z,10.29
2022-10-01T03:35:09.918Z,10.38
2022-10-01T03:37:37.199Z,10.00
2022-10-01T03:40:05.407Z,9.95
2022-10-01T03:42:32.900Z,9.84
2022-10-01T03:45:00.149Z,9.72
2022-10-01T03:47:27.403Z,9.81
2022-10-01T03:49:54.855Z,10.14
2022-10-01T03:52:22.257Z,10.16
2022-10-01T03:54:49.838Z,9.95
2022-10-01T03:57:17.374Z,10.06
2022-10-01T03:59:44.710Z,10.10
2022-10-01T04:02:12.190Z,10.03
2022-10-01T04:04:39.910Z,10.10
2022-10-01T04:07:07.607Z,10.07
2022-10-01T04:09:34.997Z,10.03
2022-10-01T04:12:02.600Z,10.02
2022-10-01T04:14:29.841Z,9.99
2022-10-01T04:16:59.169Z,9.98
2022-10-01T04:19:27.317Z,9.97
2022-10-01T04:21:55.006Z,9.99
2022-10-01T04:24:22.464Z,9.96
2022-10-01T04:26:52.220Z,9.89
2022-10-01T04:29:19.856Z,9.82
2022-10-01T04:31:47.258Z,9.83
2022-10-01T04:34:15.203Z,9.86
2022-10-01T04:36:43.026Z,9.84
2022-10-01T04:39:10.392Z,9.87
2022-10-01T04:41:39.113Z,9.99
2022-10-01T04:44:07.322Z,10.03
2022-10-01T04:46:35.179Z,9.97
2022-10-01T04:49:02.820Z,9.96
2022-10-01T04:51:30.411Z,9.86
2022-10-01T04:53:57.831Z,10.12
2022-10-01T04:56:57.779Z,10.04
2022-10-01T04:59:26.015Z,10.02
2022-10-01T05:01:54.216Z,10.00
2022-10-01T05:04:21.597Z,9.84
2022-10-01T05:06:49.115Z,9.89
2022-10-01T05:09:16.482Z,10.03
2022-10-01T05:11:43.946Z,10.13
2022-10-01T05:14:14.022Z,10.37
2022-10-01T05:16:41.364Z,10.18
2022-10-01T05:19:08.995Z,10.34
2022-10-01T05:22:01.254Z,10.34
2022-10-01T05:24:29.196Z,10.46
2022-10-01T05:26:57.969Z,10.57
2022-10-01T05:29:25.721Z,10.67
2022-10-01T05:31:53.140Z,10.69
2022-10-01T05:34:20.565Z,10.73
2022-10-01T05:36:48.213Z,10.83
2022-10-01T05:39:15.577Z,11.10
2022-10-01T05:41:44.122Z,10.98
2022-10-01T05:44:11.761Z,11.07
2022-10-01T05:46:39.112Z,11.06
2022-10-01T05:49:07.841Z,11.34
2022-10-01T05:51:36.602Z,11.27
2022-10-01T05:54:10.049Z,11.22
2022-10-01T05:56:38.236Z,10.88
2022-10-01T05:59:06.638Z,10.90
2022-10-01T06:01:34.692Z,11.15
2022-10-01T06:04:02.479Z,11.23
2022-10-01T06:06:30.185Z,11.30
2022-10-01T06:08:59.726Z,11.39
2022-10-01T06:11:27.471Z,11.41
2022-10-01T06:13:54.824Z,11.62
2022-10-01T06:16:22.366Z,11.70
2022-10-01T06:18:51.059Z,11.68
2022-10-01T06:21:18.551Z,11.37
2022-10-01T06:23:49.461Z,11.45
2022-10-01T06:26:21.241Z,11.41
2022-10-01T06:28:53.198Z,11.46
2022-10-01T06:31:29.810Z,11.37
2022-10-01T06:33:59.272Z,11.27
2022-10-01T06:36:27.042Z,11.44
2022-10-01T06:38:55.751Z,11.37
2022-10-01T06:41:26.264Z,11.12
2022-10-01T06:43:56.721Z,11.18
2022-10-01T06:46:25.814Z,11.33
2022-10-01T06:48:53.901Z,11.48
2022-10-01T06:51:41.958Z,11.46
2022-10-01T06:54:23.082Z,11.48
2022-10-01T06:57:02.071Z,11.60
2022-10-01T06:59:30.085Z,11.69
2022-10-01T07:02:01.109Z,11.83
2022-10-01T07:04:32.220Z,12.02
2022-10-01T07:07:03.150Z,11.85
2022-10-01T07:09:31.141Z,11.89
2022-10-01T07:12:02.152Z,11.81
2022-10-01T07:14:29.938Z,11.96
2022-10-01T07:16:57.679Z,12.06
2022-10-01T07:19:25.581Z,12.04
2022-10-01T07:21:56.382Z,12.15
2022-10-01T07:24:24.051Z,12.23
2022-10-01T07:26:52.112Z,12.31
2022-10-01T07:29:20.336Z,12.19
2022-10-01T07:31:51.983Z,12.34
2022-10-01T07:34:19.506Z,12.17
2022-10-01T07:36:51.533Z,12.43
2022-10-01T07:39:19.261Z,12.18
2022-10-01T07:41:46.898Z,12.30
2022-10-01T07:44:14.158Z,12.34
2022-10-01T07:46:41.549Z,12.40
2022-10-01T07:49:10.269Z,12.37
2022-10-01T07:51:37.826Z,12.51
2022-10-01T07:54:06.442Z,11.88
2022-10-01T07:56:34.111Z,12.23
2022-10-01T07:59:02.834Z,12.37
2022-10-01T08:01:31.970Z,12.45
2022-10-01T08:03:59.912Z,12.48
2022-10-01T08:06:27.211Z,12.58
2022-10-01T08:08:54.403Z,12.83
2022-10-01T08:11:22.089Z,12.81
2022-10-01T08:13:49.506Z,12.70
2022-10-01T08:16:17.102Z,12.70
2022-10-01T08:18:44.484Z,12.65
2022-10-01T08:21:11.713Z,12.83
2022-10-01T08:23:41.589Z,13.04
2022-10-01T08:26:09.047Z,13.06
2022-10-01T08:28:36.482Z,13.12
2022-10-01T08:31:07.561Z,13.06
2022-10-01T08:33:37.152Z,13.17
2022-10-01T08:36:09.671Z,13.33
2022-10-01T08:38:40.154Z,13.26
2022-10-01T08:41:42.598Z,13.16
2022-10-01T08:44:21.754Z,13.19
2022-10-01T08:46:52.658Z,13.45
2022-10-01T08:49:39.376Z,13.22
2022-10-01T08:52:32.266Z,13.75
2022-10-01T08:55:15.974Z,13.66
2022-10-01T08:57:59.206Z,13.61
2022-10-01T09:00:31.966Z,13.56
2022-10-01T09:03:06.526Z,13.69
2022-10-01T09:06:04.413Z,13.60
2022-10-01T09:09:22.437Z,13.74
2022-10-01T09:12:17.476Z,14.05
2022-10-01T09:15:12.075Z,14.15
2022-10-01T09:18:08.558Z,13.89
2022-10-01T09:20:42.857Z,14.17
2022-10-01T09:23:30.546Z,13.87
2022-10-01T09:25:59.914Z,13.90
2022-10-01T09:28:35.792Z,14.11
2022-10-01T09:31:35.510Z,14.13
2022-10-01T09:35:05.839Z,14.13
2022-10-01T09:37:47.225Z,14.31
2022-10-01T09:40:38.871Z,14.33
2022-10-01T09:44:21.811Z,14.28
2022-10-01T09:48:07.854Z,14.30
2022-10-01T09:50:55.677Z,14.43
2022-10-01T09:54:38.336Z,14.36
2022-10-01T09:57:48.038Z,14.51
2022-10-01T10:01:31.004Z,14.76
2022-10-01T10:05:13.699Z,14.84
2022-10-01T10:08:56.610Z,14.50
2022-10-01T10:11:29.283Z,14.53
2022-10-01T10:14:01.333Z,14.87
2022-10-01T10:16:37.833Z,14.75
2022-10-01T10:19:22.970Z,14.60
2022-10-01T10:23:05.976Z,14.79
2022-10-01T10:26:49.158Z,14.77
2022-10-01T10:30:32.511Z,14.75
2022-10-01T10:34:15.324Z,14.96
2022-10-01T10:36:45.865Z,14.40
2022-10-01T10:39:35.239Z,14.67
2022-10-01T10:42:05.829Z,14.88
2022-10-01T10:44:49.282Z,15.13
2022-10-01T10:47:20.687Z,15.08
2022-10-01T10:50:03.619Z,14.91
2022-10-01T10:52:36.698Z,15.14
2022-10-01T10:55:23.719Z,14.64
2022-10-01T10:57:57.363Z,14.83
2022-10-01T11:00:26.888Z,15.15
2022-10-01T11:03:04.612Z,15.59
2022-10-01T11:05:41.406Z,15.75
2022-10-01T11:08:20.386Z,15.43
2022-10-01T11:11:32.352Z,15.43
2022-10-01T11:15:01.029Z,15.46
2022-10-01T11:17:31.311Z,15.56
2022-10-01T11:20:38.019Z,16.16
2022-10-01T11:23:57.833Z,16.63
2022-10-01T11:26:44.251Z,16.73
2022-10-01T11:29:57.320Z,17.08
2022-10-01T11:33:05.322Z,16.81
2022-10-01T11:36:20.675Z,17.04
2022-10-01T11:38:59.255Z,16.98
2022-10-01T11:41:39.871Z,17.52
2022-10-01T11:44:32.835Z,17.11
2022-10-01T11:47:23.186Z,16.79
2022-10-01T11:51:05.814Z,17.05
2022-10-01T11:54:48.419Z,16.69
2022-10-01T11:57:36.000Z,16.98
2022-10-01T12:00:10.738Z,16.82
2022-10-01T12:03:56.572Z,16.82
2022-10-01T12:07:39.584Z,16.59
2022-10-01T12:11:22.189Z,16.71
2022-10-01T12:14:03.096Z,17.18
2022-10-01T12:17:45.841Z,17.13
2022-10-01T12:20:44.606Z,17.28
2022-10-01T12:24:27.233Z,17.24
2022-10-01T12:28:11.586Z,17.42
2022-10-01T12:31:18.675Z,17.60
2022-10-01T12:34:17.952Z,17.71
2022-10-01T12:37:17.786Z,18.00
2022-10-01T12:40:45.508Z,18.05
2022-10-01T12:43:40.411Z,17.44
2022-10-01T12:46:41.787Z,17.77
2022-10-01T12:49:28.433Z,17.86
2022-10-01T12:52:27.504Z,18.44
2022-10-01T12:55:08.947Z,18.50
2022-10-01T12:57:55.105Z,18.22
2022-10-01T13:00:33.968Z,18.16
2022-10-01T13:04:03.537Z,18.52
2022-10-01T13:07:20.913Z,18.25
2022-10-01T13:10:04.052Z,18.60
2022-10-01T13:13:18.190Z,18.71
2022-10-01T13:15:51.575Z,18.64
2022-10-01T13:18:30.538Z,19.08
2022-10-01T13:21:34.502Z,19.29
2022-10-01T13:24:28.651Z,19.31
2022-10-01T13:27:37.873Z,19.36
2022-10-01T13:30:24.376Z,19.97
2022-10-01T13:33:00.961Z,19.75
2022-10-01T13:35:39.905Z,19.90
2022-10-01T13:38:30.313Z,19.93
2022-10-01T13:41:28.787Z,20.61
2022-10-01T13:44:27.654Z,20.80
2022-10-01T13:47:07.903Z,20.49
2022-10-01T13:49:37.966Z,20.44
2022-10-01T13:52:06.141Z,20.70
2022-10-01T13:54:54.622Z,20.94
2022-10-01T13:57:36.161Z,20.55
2022-10-01T14:01:23.021Z,20.79
2022-10-01T14:04:18.794Z,21.00
2022-10-01T14:08:01.356Z,20.94
2022-10-01T14:12:03.242Z,20.50
2022-10-01T14:15:02.095Z,20.32
2022-10-01T14:18:45.099Z,20.31
2022-10-01T14:21:41.548Z,20.79
2022-10-01T14:24:45.719Z,20.59
2022-10-01T14:28:28.446Z,20.90
2022-10-01T14:32:11.307Z,21.04
2022-10-01T14:34:54.198Z,21.03
2022-10-01T14:37:22.632Z,21.10
2022-10-01T14:41:05.205Z,20.96
2022-10-01T14:44:48.098Z,21.19
2022-10-01T14:48:30.661Z,20.93
2022-10-01T14:51:04.979Z,21.10
2022-10-01T14:53:38.446Z,21.13
2022-10-01T14:56:13.046Z,20.88
2022-10-01T14:59:04.091Z,20.73
2022-10-01T15:01:31.565Z,20.85
2022-10-01T15:03:58.903Z,20.78
2022-10-01T15:06:29.897Z,20.15
2022-10-01T15:09:15.105Z,20.33
2022-10-01T15:11:46.598Z,20.40
2022-10-01T15:14:24.949Z,20.17
2022-10-01T15:16:52.812Z,20.22
2022-10-01T15:19:23.486Z,20.14
2022-10-01T15:22:01.085Z,20.10
2022-10-01T15:24:46.384Z,20.36
2022-10-01T15:27:20.066Z,20.24
2022-10-01T15:29:56.444Z,19.39
2022-10-01T15:32:28.017Z,19.29
2022-10-01T15:35:02.137Z,19.19
2022-10-01T15:37:36.797Z,19.18
2022-10-01T15:40:30.178Z,19.29
2022-10-01T15:43:27.722Z,19.33
2022-10-01T15:46:07.638Z,19.15
2022-10-01T15:48:35.025Z,19.51
2022-10-01T15:51:20.376Z,19.29
2022-10-01T15:53:47.816Z,19.00
2022-10-01T15:56:23.694Z,19.09
2022-10-01T15:59:15.851Z,19.28
2022-10-01T16:01:43.537Z,18.92
2022-10-01T16:04:17.030Z,18.88
2022-10-01T16:06:51.986Z,18.66
2022-10-01T18:03:07.455Z,17.78
2022-10-01T18:05:35.092Z,17.56
2022-10-01T18:08:08.759Z,17.27
2022-10-01T18:10:37.133Z,17.00
2022-10-01T18:13:04.731Z,16.81
2022-10-01T18:15:32.382Z,17.02
2022-10-01T18:18:58.760Z,17.26
2022-10-01T18:20:47.914Z,17.31
2022-10-01T18:23:15.299Z,17.57
2022-10-01T18:25:42.870Z,17.57
2022-10-01T18:28:10.371Z,16.88
2022-10-01T18:30:40.413Z,17.07
2022-10-01T18:33:13.004Z,17.14
2022-10-01T18:35:44.329Z,17.25
2022-10-01T18:38:32.382Z,17.09
2022-10-01T18:41:11.112Z,17.11
2022-10-01T18:43:41.525Z,16.77
2022-10-01T18:46:45.050Z,16.91
2022-10-01T18:49:58.050Z,16.80
2022-10-01T18:53:04.120Z,16.82
2022-10-01T18:56:24.229Z,16.85
2022-10-01T18:59:24.593Z,16.83
2022-10-01T19:02:40.897Z,16.80
2022-10-01T19:06:10.164Z,16.58
2022-10-01T19:09:27.255Z,16.59
2022-10-01T19:13:03.882Z,16.85
2022-10-01T19:16:27.815Z,16.59
2022-10-01T19:19:25.900Z,16.20
2022-10-01T19:22:21.757Z,16.18
2022-10-01T19:25:54.876Z,16.04
2022-10-01T19:29:04.850Z,15.91
2022-10-01T19:31:55.068Z,15.93
2022-10-01T19:34:50.833Z,16.05
2022-10-01T19:37:50.419Z,15.93
2022-10-01T19:40:28.461Z,15.80
2022-10-01T19:43:42.164Z,15.72
2022-10-01T19:46:31.308Z,16.05
2022-10-01T19:49:36.432Z,15.91
2022-10-01T19:52:18.736Z,15.78
2022-10-01T19:55:03.438Z,15.57
2022-10-01T19:57:45.253Z,15.94
2022-10-01T20:00:21.847Z,15.80
2022-10-01T20:03:26.848Z,15.83
2022-10-01T20:06:25.554Z,15.86
2022-10-01T20:09:28.601Z,16.13
2022-10-01T20:12:38.476Z,15.88
2022-10-01T20:15:55.602Z,15.71
2022-10-01T20:18:59.696Z,15.70
2022-10-01T20:21:59.917Z,15.68
2022-10-01T20:25:05.244Z,15.15
2022-10-01T20:27:50.375Z,14.90
2022-10-01T20:30:26.209Z,15.26
2022-10-01T20:33:35.379Z,15.42
2022-10-01T20:36:44.272Z,15.30
2022-10-01T20:39:44.423Z,15.71
2022-10-01T20:42:25.758Z,15.81
2022-10-01T20:44:56.015Z,15.84
2022-10-01T20:47:42.759Z,15.85
2022-10-01T20:50:22.954Z,15.85
2022-10-01T20:53:27.325Z,15.28
2022-10-01T20:56:15.670Z,16.05
2022-10-01T20:59:05.098Z,15.94
2022-10-01T21:01:46.350Z,16.17
2022-10-01T21:04:23.997Z,15.63
2022-10-01T21:07:15.322Z,15.90
2022-10-01T21:09:53.984Z,15.86
2022-10-01T21:12:40.712Z,16.26
2022-10-01T21:15:17.236Z,16.29
2022-10-01T21:18:27.938Z,16.57
2022-10-01T21:21:55.170Z,16.12
2022-10-01T21:25:02.542Z,16.38
2022-10-01T21:28:28.650Z,16.19
2022-10-01T21:32:19.487Z,16.38
2022-10-01T21:35:04.035Z,16.09
2022-10-01T21:37:41.709Z,16.08
2022-10-01T21:41:06.046Z,16.16
2022-10-01T21:44:19.963Z,15.96
2022-10-01T21:47:34.419Z,16.21
2022-10-01T21:50:12.261Z,16.17
2022-10-01T21:53:43.276Z,15.91
2022-10-01T21:56:50.769Z,16.02
2022-10-01T22:00:19.321Z,15.83
2022-10-01T22:03:32.195Z,16.12
2022-10-01T22:06:17.159Z,15.72
2022-10-01T22:09:33.211Z,15.68
2022-10-01T22:12:06.030Z,15.55
2022-10-01T22:14:33.731Z,15.78
2022-10-01T22:17:15.690Z,16.15
2022-10-01T22:19:54.287Z,16.16
2022-10-01T22:22:38.182Z,16.02
2022-10-01T22:25:08.336Z,15.87
2022-10-01T22:27:54.296Z,16.06
2022-10-01T22:30:28.755Z,16.69
2022-10-01T22:33:31.219Z,16.32
2022-10-01T22:36:11.904Z,15.84
2022-10-01T22:38:54.333Z,16.18
2022-10-01T22:42:12.259Z,15.99
2022-10-01T22:44:39.645Z,15.73
2022-10-01T22:47:55.982Z,15.76
2022-10-01T22:50:44.769Z,15.74
2022-10-01T22:54:07.096Z,16.08
2022-10-01T22:56:53.811Z,15.98
2022-10-01T22:59:59.950Z,15.73
2022-10-01T23:02:40.995Z,15.78
2022-10-01T23:05:40.786Z,15.78
2022-10-01T23:08:34.460Z,16.18
2022-10-01T23:11:27.290Z,16.19
2022-10-01T23:14:19.191Z,15.94
2022-10-01T23:17:34.318Z,15.70
2022-10-01T23:20:47.358Z,15.60
2022-10-01T23:23:33.596Z,15.99
2022-10-01T23:26:21.058Z,15.92
2022-10-01T23:29:11.666Z,15.99
2022-10-01T23:32:40.983Z,15.96
2022-10-01T23:35:20.083Z,15.73
2022-10-01T23:38:51.471Z,15.88
2022-10-01T23:41:51.321Z,15.68
2022-10-01T23:44:41.334Z,15.78
2022-10-01T23:47:32.228Z,15.78
2022-10-01T23:50:04.552Z,15.80
2022-10-01T23:52:50.656Z,15.93
2022-10-01T23:55:56.590Z,15.87
2022-10-01T23:58:29.006Z,15.88
